sensor_id;sensor_type;location;lat;lon;timestamp;pressure;altitude;pressure_sealevel;temperature;humidity
65280;BME280;51878;55.748;48.742;2023-04-01T00:03:33;98508.97;;;2.77;100.00
65280;BME280;51878;55.748;48.742;2023-04-01T00:08:36;98515.00;;;2.79;100.00
65280;BME280;51878;55.748;48.742;2023-04-01T00:13:38;98408.69;;;2.12;100.00
65280;BME280;51878;55.748;48.742;2023-04-01T00:18:40;98455.78;;;2.39;100.00
65280;BME280;51878;55.748;48.742;2023-04-01T00:23:42;98438.06;;;2.38;100.00
65280;BME280;51878;55.748;48.742;2023-04-01T00:28:45;98479.81;;;2.65;100.00
65280;BME280;51878;55.748;48.742;2023-04-01T00:33:48;98478.47;;;2.61;100.00
65280;BME280;51878;55.748;48.742;2023-04-01T00:38:50;98449.44;;;2.40;100.00
65280;BME280;51878;55.748;48.742;2023-04-01T00:44:26;98494.38;;;2.71;100.00
65280;BME280;51878;55.748;48.742;2023-04-01T00:49:35;98478.59;;;2.60;100.00
65280;BME280;51878;55.748;48.742;2023-04-01T00:54:38;98467.22;;;2.58;100.00
65280;BME280;51878;55.748;48.742;2023-04-01T00:59:46;98489.31;;;2.60;100.00
65280;BME280;51878;55.748;48.742;2023-04-01T01:04:49;98466.88;;;2.53;100.00
65280;BME280;51878;55.748;48.742;2023-04-01T01:10:05;98446.66;;;2.50;100.00
65280;BME280;51878;55.748;48.742;2023-04-01T01:26:09;98486.34;;;2.63;100.00
65280;BME280;51878;55.748;48.742;2023-04-01T01:31:25;98401.34;;;2.14;100.00
65280;BME280;51878;55.748;48.742;2023-04-01T01:36:31;98408.06;;;2.18;100.00
65280;BME280;51878;55.748;48.742;2023-04-01T01:41:38;98461.53;;;2.53;100.00
65280;BME280;51878;55.748;48.742;2023-04-01T01:46:42;98411.56;;;2.19;100.00
65280;BME280;51878;55.748;48.742;2023-04-01T01:51:45;98439.38;;;2.34;100.00
65280;BME280;51878;55.748;48.742;2023-04-01T01:56:51;98465.56;;;2.57;100.00
65280;BME280;51878;55.748;48.742;2023-04-01T02:01:55;98324.09;;;1.69;100.00
65280;BME280;51878;55.748;48.742;2023-04-01T02:07:10;98461.47;;;2.44;100.00
65280;BME280;51878;55.748;48.742;2023-04-01T02:12:15;98463.69;;;2.49;100.00
65280;BME280;51878;55.748;48.742;2023-04-01T02:17:24;98451.47;;;2.46;100.00
65280;BME280;51878;55.748;48.742;2023-04-01T02:22:35;98432.03;;;2.36;100.00
65280;BME280;51878;55.748;48.742;2023-04-01T02:27:38;98472.44;;;2.59;100.00
65280;BME280;51878;55.748;48.742;2023-04-01T02:32:41;98298.81;;;1.55;100.00
65280;BME280;51878;55.748;48.742;2023-04-01T02:37:48;98406.50;;;2.16;100.00
65280;BME280;51878;55.748;48.742;2023-04-01T02:42:51;98443.03;;;2.33;100.00
65280;BME280;51878;55.748;48.742;2023-04-01T02:47:53;98430.34;;;2.35;100.00
65280;BME280;51878;55.748;48.742;2023-04-01T02:52:55;98452.19;;;2.57;100.00
65280;BME280;51878;55.748;48.742;2023-04-01T02:57:58;98463.03;;;2.55;100.00
65280;BME280;51878;55.748;48.742;2023-04-01T03:03:00;98402.03;;;2.24;100.00
65280;BME280;51878;55.748;48.742;2023-04-01T03:08:02;98427.19;;;2.40;100.00
65280;BME280;51878;55.748;48.742;2023-04-01T03:13:05;98366.41;;;2.08;100.00
65280;BME280;51878;55.748;48.742;2023-04-01T03:18:07;98427.88;;;2.42;100.00
65280;BME280;51878;55.748;48.742;2023-04-01T03:23:09;98458.75;;;2.62;100.00
65280;BME280;51878;55.748;48.742;2023-04-01T03:28:12;98446.69;;;2.58;100.00
65280;BME280;51878;55.748;48.742;2023-04-01T03:33:15;98378.50;;;2.28;100.00
65280;BME280;51878;55.748;48.742;2023-04-01T03:38:17;98451.84;;;2.60;100.00
65280;BME280;51878;55.748;48.742;2023-04-01T03:43:20;98464.44;;;2.67;100.00
65280;BME280;51878;55.748;48.742;2023-04-01T03:48:22;98395.22;;;2.30;100.00
65280;BME280;51878;55.748;48.742;2023-04-01T03:53:24;98410.47;;;2.38;100.00
65280;BME280;51878;55.748;48.742;2023-04-01T03:58:26;98332.38;;;1.92;100.00
65280;BME280;51878;55.748;48.742;2023-04-01T04:03:28;98424.94;;;2.61;100.00
65280;BME280;51878;55.748;48.742;2023-04-01T04:08:30;98454.25;;;2.71;100.00
65280;BME280;51878;55.748;48.742;2023-04-01T04:13:33;98466.16;;;2.77;100.00
65280;BME280;51878;55.748;48.742;2023-04-01T04:18:36;98471.69;;;2.83;100.00
65280;BME280;51878;55.748;48.742;2023-04-01T04:23:39;98473.28;;;3.02;100.00
65280;BME280;51878;55.748;48.742;2023-04-01T04:28:41;98475.28;;;3.08;100.00
65280;BME280;51878;55.748;48.742;2023-04-01T04:33:43;98506.88;;;2.97;100.00
65280;BME280;51878;55.748;48.742;2023-04-01T04:38:46;98475.97;;;3.02;100.00
65280;BME280;51878;55.748;48.742;2023-04-01T04:43:50;98461.56;;;3.03;100.00
65280;BME280;51878;55.748;48.742;2023-04-01T04:48:52;98462.69;;;2.93;100.00
65280;BME280;51878;55.748;48.742;2023-04-01T04:53:54;98486.69;;;3.19;100.00
65280;BME280;51878;55.748;48.742;2023-04-01T04:58:57;98442.63;;;2.97;100.00
65280;BME280;51878;55.748;48.742;2023-04-01T05:03:59;98474.25;;;3.01;100.00
65280;BME280;51878;55.748;48.742;2023-04-01T05:09:02;98473.28;;;3.10;100.00
65280;BME280;51878;55.748;48.742;2023-04-01T05:14:04;98422.50;;;2.76;100.00
65280;BME280;51878;55.748;48.742;2023-04-01T05:19:06;98384.03;;;2.69;100.00
65280;BME280;51878;55.748;48.742;2023-04-01T05:24:08;98442.69;;;3.21;100.00
65280;BME280;51878;55.748;48.742;2023-04-01T05:29:11;98439.69;;;3.41;100.00
65280;BME280;51878;55.748;48.742;2023-04-01T05:34:13;98413.94;;;3.40;100.00
65280;BME280;51878;55.748;48.742;2023-04-01T05:39:15;98402.53;;;3.70;100.00
65280;BME280;51878;55.748;48.742;2023-04-01T05:44:17;98316.66;;;3.23;100.00
65280;BME280;51878;55.748;48.742;2023-04-01T05:49:19;98422.75;;;4.06;100.00
65280;BME280;51878;55.748;48.742;2023-04-01T05:54:22;98424.72;;;4.20;100.00
65280;BME280;51878;55.748;48.742;2023-04-01T05:59:24;98464.13;;;4.28;100.00
65280;BME280;51878;55.748;48.742;2023-04-01T06:04:28;98466.28;;;4.32;100.00
65280;BME280;51878;55.748;48.742;2023-04-01T06:09:34;98318.78;;;3.60;100.00
65280;BME280;51878;55.748;48.742;2023-04-01T06:15:09;98452.63;;;4.59;100.00
65280;BME280;51878;55.748;48.742;2023-04-01T06:20:59;98419.75;;;4.57;100.00
65280;BME280;51878;55.748;48.742;2023-04-01T06:47:36;98396.56;;;5.18;97.87
65280;BME280;51878;55.748;48.742;2023-04-01T06:53:17;98438.72;;;4.94;95.74
65280;BME280;51878;55.748;48.742;2023-04-01T06:58:26;98418.59;;;4.51;95.81
65280;BME280;51878;55.748;48.742;2023-04-01T07:03:35;98475.59;;;4.61;98.43
65280;BME280;51878;55.748;48.742;2023-04-01T07:08:41;98454.00;;;4.38;95.34
65280;BME280;51878;55.748;48.742;2023-04-01T07:13:55;98446.13;;;4.45;92.74
65280;BME280;51878;55.748;48.742;2023-04-01T07:24:10;98436.28;;;4.21;97.09
65280;BME280;51878;55.748;48.742;2023-04-01T07:29:17;98478.53;;;4.35;97.77
65280;BME280;51878;55.748;48.742;2023-04-01T07:34:27;98478.00;;;4.31;99.85
65280;BME280;51878;55.748;48.742;2023-04-01T07:39:35;98467.09;;;4.41;100.00
65280;BME280;51878;55.748;48.742;2023-04-01T07:44:59;98466.44;;;4.31;96.38
65280;BME280;51878;55.748;48.742;2023-04-01T07:50:10;98467.28;;;4.31;95.93
65280;BME280;51878;55.748;48.742;2023-04-01T08:05:49;98520.44;;;4.44;91.70
65280;BME280;51878;55.748;48.742;2023-04-01T08:16:26;98420.44;;;3.78;92.93
65280;BME280;51878;55.748;48.742;2023-04-01T08:21:37;98526.16;;;4.25;93.14
65280;BME280;51878;55.748;48.742;2023-04-01T08:26:48;98447.06;;;3.88;94.01
65280;BME280;51878;55.748;48.742;2023-04-01T08:37:21;98464.66;;;3.49;89.19
65280;BME280;51878;55.748;48.742;2023-04-01T08:43:06;98530.16;;;4.21;87.93
65280;BME280;51878;55.748;48.742;2023-04-01T08:48:31;98549.81;;;4.21;87.24
65280;BME280;51878;55.748;48.742;2023-04-01T09:10:11;98556.00;;;4.22;97.54
65280;BME280;51878;55.748;48.742;2023-04-01T09:15:53;98578.78;;;4.42;98.64
65280;BME280;51878;55.748;48.742;2023-04-01T10:03:25;98592.50;;;6.45;73.19
65280;BME280;51878;55.748;48.742;2023-04-01T10:14:16;98546.13;;;5.65;72.99
65280;BME280;51878;55.748;48.742;2023-04-01T10:25:29;98606.66;;;5.22;74.93
65280;BME280;51878;55.748;48.742;2023-04-01T10:41:15;98638.38;;;5.18;76.92
65280;BME280;51878;55.748;48.742;2023-04-01T10:52:08;98573.22;;;4.52;80.31
65280;BME280;51878;55.748;48.742;2023-04-01T11:03:20;98688.50;;;4.94;78.57
65280;BME280;51878;55.748;48.742;2023-04-01T11:19:23;98705.44;;;5.03;77.52
65280;BME280;51878;55.748;48.742;2023-04-01T11:24:44;98695.00;;;5.16;77.97
65280;BME280;51878;55.748;48.742;2023-04-01T11:35:38;98744.47;;;5.55;77.09
65280;BME280;51878;55.748;48.742;2023-04-01T11:46:23;98555.97;;;4.38;72.56
65280;BME280;51878;55.748;48.742;2023-04-01T12:18:59;98751.59;;;4.90;80.72
65280;BME280;51878;55.748;48.742;2023-04-01T12:24:29;98782.31;;;4.96;81.21
65280;BME280;51878;55.748;48.742;2023-04-01T12:40:43;98804.13;;;4.85;83.59
65280;BME280;51878;55.748;48.742;2023-04-01T12:51:44;98613.44;;;3.78;86.06
65280;BME280;51878;55.748;48.742;2023-04-01T13:29:36;98804.94;;;4.61;88.57
65280;BME280;51878;55.748;48.742;2023-04-01T13:35:02;98847.28;;;4.91;89.60
65280;BME280;51878;55.748;48.742;2023-04-01T13:40:23;98841.63;;;5.03;90.13
65280;BME280;51878;55.748;48.742;2023-04-01T13:46:01;98830.03;;;5.43;89.81
65280;BME280;51878;55.748;48.742;2023-04-01T14:12:31;98820.00;;;12.20;49.89
65280;BME280;51878;55.748;48.742;2023-04-01T14:17:47;98859.03;;;12.52;46.89
65280;BME280;51878;55.748;48.742;2023-04-01T14:23:25;98860.63;;;13.18;45.63
65280;BME280;51878;55.748;48.742;2023-04-01T14:28:46;98873.44;;;12.59;45.05
65280;BME280;51878;55.748;48.742;2023-04-01T14:39:07;98827.53;;;11.25;48.34
65280;BME280;51878;55.748;48.742;2023-04-01T14:44:38;98892.03;;;11.16;49.80
65280;BME280;51878;55.748;48.742;2023-04-01T14:49:52;98839.78;;;10.94;49.70
65280;BME280;51878;55.748;48.742;2023-04-01T14:54:59;98888.22;;;11.04;49.97
65280;BME280;51878;55.748;48.742;2023-04-01T15:00:12;98903.75;;;10.75;51.23
65280;BME280;51878;55.748;48.742;2023-04-01T15:27:30;98942.94;;;6.09;71.34
65280;BME280;51878;55.748;48.742;2023-04-01T15:43:48;98889.88;;;4.70;82.05
65280;BME280;51878;55.748;48.742;2023-04-01T15:49:04;98978.78;;;5.01;84.91
65280;BME280;51878;55.748;48.742;2023-04-01T15:54:27;98977.13;;;4.74;88.94
65280;BME280;51878;55.748;48.742;2023-04-01T16:21:03;98934.13;;;3.97;95.46
65280;BME280;51878;55.748;48.742;2023-04-01T16:26:31;99007.03;;;4.45;96.82
65280;BME280;51878;55.748;48.742;2023-04-01T16:37:09;98999.16;;;4.17;100.00
65280;BME280;51878;55.748;48.742;2023-04-01T16:42:31;99028.13;;;4.13;100.00
65280;BME280;51878;55.748;48.742;2023-04-01T16:48:01;99032.56;;;4.05;100.00
65280;BME280;51878;55.748;48.742;2023-04-01T16:53:08;99039.16;;;4.10;100.00
65280;BME280;51878;55.748;48.742;2023-04-01T16:58:33;99040.22;;;4.18;100.00
65280;BME280;51878;55.748;48.742;2023-04-01T17:03:42;98926.91;;;3.71;100.00
65280;BME280;51878;55.748;48.742;2023-04-01T17:41:53;99041.56;;;4.66;98.11
65280;BME280;51878;55.748;48.742;2023-04-01T17:47:24;99052.91;;;4.60;98.74
65280;BME280;51878;55.748;48.742;2023-04-01T17:52:48;99035.25;;;4.49;98.45
65280;BME280;51878;55.748;48.742;2023-04-01T18:14:54;99074.28;;;4.69;97.71
65280;BME280;51878;55.748;48.742;2023-04-01T18:25:45;99035.03;;;4.42;95.79
65280;BME280;51878;55.748;48.742;2023-04-01T18:31:07;99097.72;;;4.59;95.87
65280;BME280;51878;55.748;48.742;2023-04-01T18:47:14;99101.03;;;4.53;97.34
65280;BME280;51878;55.748;48.742;2023-04-01T18:52:26;99103.28;;;4.40;97.03
65280;BME280;51878;55.748;48.742;2023-04-01T19:07:55;99117.88;;;4.19;98.89
65280;BME280;51878;55.748;48.742;2023-04-01T19:13:10;99077.34;;;3.86;98.40
65280;BME280;51878;55.748;48.742;2023-04-01T19:18:47;99117.56;;;4.04;99.84
65280;BME280;51878;55.748;48.742;2023-04-01T19:34:59;99103.69;;;4.09;98.81
65280;BME280;51878;55.748;48.742;2023-04-01T19:45:43;99100.31;;;4.25;96.12
65280;BME280;51878;55.748;48.742;2023-04-01T20:07:16;99067.53;;;3.95;96.55
65280;BME280;51878;55.748;48.742;2023-04-01T20:12:28;99141.00;;;4.20;98.04
65280;BME280;51878;55.748;48.742;2023-04-01T20:17:42;99123.47;;;4.08;98.74
65280;BME280;51878;55.748;48.742;2023-04-01T20:27:54;99136.81;;;4.00;100.00
65280;BME280;51878;55.748;48.742;2023-04-01T20:33:16;99049.28;;;3.17;100.00
65280;BME280;51878;55.748;48.742;2023-04-01T20:49:20;99165.03;;;3.76;100.00
65280;BME280;51878;55.748;48.742;2023-04-01T21:22:04;99059.03;;;3.18;98.92
65280;BME280;51878;55.748;48.742;2023-04-01T21:27:27;99172.59;;;3.90;98.54
65280;BME280;51878;55.748;48.742;2023-04-01T21:59:45;99163.44;;;3.83;97.32
65280;BME280;51878;55.748;48.742;2023-04-01T22:16:11;99174.28;;;3.64;99.30
65280;BME280;51878;55.748;48.742;2023-04-01T22:21:26;99162.00;;;3.61;100.00
65280;BME280;51878;55.748;48.742;2023-04-01T22:26:56;99005.50;;;2.81;97.81
65280;BME280;51878;55.748;48.742;2023-04-01T22:32:17;99091.53;;;3.33;97.65
65280;BME280;51878;55.748;48.742;2023-04-01T22:37:47;99167.22;;;3.90;97.82
65280;BME280;51878;55.748;48.742;2023-04-01T22:43:03;99090.97;;;3.75;94.77
65280;BME280;51878;55.748;48.742;2023-04-01T22:58:41;99134.88;;;3.92;93.96
65280;BME280;51878;55.748;48.742;2023-04-01T23:03:46;99040.16;;;3.38;93.65
65280;BME280;51878;55.748;48.742;2023-04-01T23:19:32;99152.22;;;3.70;95.72
65280;BME280;51878;55.748;48.742;2023-04-01T23:24:47;99137.00;;;3.43;98.92
65280;BME280;51878;55.748;48.742;2023-04-01T23:29:52;99161.16;;;3.61;100.00
65280;BME280;51878;55.748;48.742;2023-04-01T23:34:59;99131.56;;;3.52;99.89
65280;BME280;51878;55.748;48.742;2023-04-01T23:40:03;99099.97;;;3.28;100.00
65280;BME280;51878;55.748;48.742;2023-04-01T23:45:16;99114.72;;;3.42;100.00
65280;BME280;51878;55.748;48.742;2023-04-01T23:50:25;99158.06;;;3.83;99.10
65280;BME280;51878;55.748;48.742;2023-04-01T23:55:32;99168.22;;;4.07;97.79
